Time;durP1;ratioP1;P1;durP2;ratioP2;P2;SDS_P1;SDS_P2;PMS_P1;PMS_P2;Temp;Humidity;BMP_temperature;BMP_pressure;BME280_temperature;BME280_humidity;BME280_pressure;Samples;Min_cycle;Max_cycle;Signal;HPM_P1;HPM_P2
2022/02/24 00:01:10;;;;;;;8.70;3.05;;;5.00;80.90;;;;;;4976105;28;20070;-66
2022/02/24 00:03:38;;;;;;;9.32;3.13;;;5.10;80.90;;;;;;4959376;28;20140;-67
2022/02/24 00:06:18;;;;;;;6.53;2.58;;;5.10;80.90;;;;;;4987903;28;20050;-65
2022/02/24 00:08:53;;;;;;;6.30;3.60;;;5.00;80.80;;;;;;4962729;28;20061;-67
2022/02/24 00:11:24;;;;;;;9.57;3.00;;;5.00;81.00;;;;;;4982406;28;20053;-67
2022/02/24 00:13:53;;;;;;;6.68;2.42;;;5.00;81.00;;;;;;4980365;28;20046;-67
2022/02/24 00:16:22;;;;;;;7.65;3.17;;;5.10;81.10;;;;;;4977955;28;20049;-64
2022/02/24 00:18:49;;;;;;;5.75;2.72;;;5.00;81.30;;;;;;4978671;28;20049;-67
2022/02/24 00:21:16;;;;;;;9.40;3.28;;;5.00;81.40;;;;;;4980515;28;20049;-65
2022/02/24 00:23:44;;;;;;;8.80;3.72;;;5.00;81.40;;;;;;4979789;28;20042;-65
2022/02/24 00:26:16;;;;;;;8.45;3.58;;;5.10;81.40;;;;;;4979883;28;20050;-66
2022/02/24 00:28:46;;;;;;;7.68;2.85;;;5.10;81.30;;;;;;4986377;28;20133;-66
2022/02/24 00:31:13;;;;;;;;;;;5.10;81.40;;;;;;4988842;28;20054;-65
2022/02/24 00:33:41;;;;;;;5.32;2.33;;;5.10;81.30;;;;;;4986481;28;19929;-66
2022/02/24 00:36:09;;;;;;;7.50;2.80;;;5.10;81.40;;;;;;4986332;28;20058;-66
2022/02/24 00:38:36;;;;;;;10.85;2.53;;;5.10;81.50;;;;;;4986553;28;20058;-67
2022/02/24 00:41:06;;;;;;;7.95;2.53;;;5.10;81.60;;;;;;4987936;28;20117;-67
2022/02/24 00:43:35;;;;;;;5.68;2.20;;;5.10;81.50;;;;;;4989667;28;20144;-67
2022/02/24 00:46:03;;;;;;;4.63;2.60;;;5.10;81.70;;;;;;4987031;28;20137;-67
2022/02/24 00:48:30;;;;;;;6.25;2.65;;;5.10;81.80;;;;;;4989114;28;20034;-67
2022/02/24 00:51:03;;;;;;;5.00;2.08;;;5.10;81.70;;;;;;4989861;28;20061;-66
2022/02/24 00:53:33;;;;;;;6.90;2.78;;;5.10;81.70;;;;;;4992307;28;20069;-66
2022/02/24 00:56:00;;;;;;;6.85;2.55;;;5.10;81.70;;;;;;4989373;28;20052;-66
2022/02/24 00:58:30;;;;;;;6.07;2.20;;;5.20;81.50;;;;;;4989738;28;20042;-65
2022/02/24 01:00:59;;;;;;;4.63;2.20;;;5.10;81.50;;;;;;4987054;28;20052;-67
2022/02/24 01:03:26;;;;;;;5.18;2.70;;;5.20;81.40;;;;;;4986875;28;20080;-66
2022/02/24 01:05:54;;;;;;;6.93;2.42;;;5.10;81.40;;;;;;4988823;28;20050;-66
2022/02/24 01:08:21;;;;;;;6.25;2.17;;;5.20;81.50;;;;;;4986357;28;20537;-65
2022/02/24 01:10:51;;;;;;;6.15;1.95;;;5.10;81.60;;;;;;4987890;28;20610;-67
2022/02/24 01:13:19;;;;;;;7.73;2.37;;;5.10;81.60;;;;;;4991707;28;20046;-67
2022/02/24 01:15:46;;;;;;;6.38;2.55;;;5.10;81.60;;;;;;4992467;28;20481;-67
2022/02/24 01:18:21;;;;;;;7.65;2.65;;;5.10;81.60;;;;;;4987631;28;20902;-66
2022/02/24 01:20:49;;;;;;;5.72;2.72;;;5.10;81.60;;;;;;4974259;28;20082;-67
2022/02/24 01:23:16;;;;;;;8.93;2.70;;;5.10;81.60;;;;;;4986685;28;20602;-67
2022/02/24 01:25:43;;;;;;;5.00;2.15;;;5.10;81.70;;;;;;4992824;28;20306;-66
2022/02/24 01:28:10;;;;;;;6.53;2.65;;;5.10;81.60;;;;;;4990193;28;20056;-67
2022/02/24 01:30:40;;;;;;;8.15;2.47;;;5.10;81.70;;;;;;4989808;28;20051;-66
2022/02/24 01:33:09;;;;;;;5.15;2.33;;;5.10;81.70;;;;;;4987992;28;20046;-66
2022/02/24 01:35:44;;;;;;;6.38;2.47;;;5.20;81.70;;;;;;4986692;28;20058;-66
2022/02/24 01:38:11;;;;;;;6.18;2.40;;;5.10;81.70;;;;;;4968339;28;20266;-65
2022/02/24 01:40:43;;;;;;;7.60;3.22;;;5.20;81.70;;;;;;4982381;28;20050;-65
2022/02/24 01:43:10;;;;;;;6.53;2.42;;;5.20;81.70;;;;;;4988148;28;21965;-67
2022/02/24 01:45:37;;;;;;;5.47;2.28;;;5.10;81.80;;;;;;4986640;28;20131;-65
2022/02/24 01:48:05;;;;;;;7.43;2.53;;;5.20;81.90;;;;;;4985986;28;20045;-66
2022/02/24 01:50:32;;;;;;;5.72;2.35;;;5.10;81.90;;;;;;4986056;28;20042;-65
2022/02/24 01:53:05;;;;;;;7.38;2.15;;;5.20;82.00;;;;;;4984161;28;20050;-68
2022/02/24 01:55:33;;;;;;;5.95;2.58;;;5.20;82.00;;;;;;4985039;28;20268;-66
2022/02/24 01:58:02;;;;;;;7.15;4.00;;;5.10;81.90;;;;;;4988066;28;20050;-67
2022/02/24 02:00:30;;;;;;;6.53;2.30;;;5.20;82.00;;;;;;4981850;28;20166;-66
2022/02/24 02:02:57;;;;;;;5.82;2.20;;;5.20;82.00;;;;;;4985794;28;20039;-69
2022/02/24 02:05:25;;;;;;;4.53;2.22;;;5.10;82.00;;;;;;4988834;28;20090;-66
2022/02/24 02:07:52;;;;;;;5.18;2.20;;;5.10;82.10;;;;;;4986319;28;20049;-68
2022/02/24 02:10:22;;;;;;;7.30;2.67;;;5.10;82.00;;;;;;4987825;28;20056;-66
2022/02/24 02:12:51;;;;;;;4.75;2.55;;;5.10;82.10;;;;;;4985346;28;20050;-65
2022/02/24 02:15:19;;;;;;;7.20;2.47;;;5.10;82.10;;;;;;4987679;28;20144;-68
2022/02/24 02:17:47;;;;;;;4.82;2.40;;;5.10;82.30;;;;;;4985240;28;20528;-66
2022/02/24 02:20:14;;;;;;;8.50;2.35;;;5.10;82.50;;;;;;4986373;28;20052;-66
2022/02/24 02:22:58;;;;;;;8.50;2.65;;;5.20;82.30;;;;;;4986761;28;20412;-66
2022/02/24 02:25:25;;;;;;;6.22;2.63;;;5.20;82.30;;;;;;4987215;28;20050;-67
2022/02/24 02:27:56;;;;;;;9.20;2.80;;;5.10;82.40;;;;;;4983862;28;20484;-66
2022/02/24 02:30:24;;;;;;;7.00;2.50;;;5.20;82.50;;;;;;4985789;28;20057;-66
2022/02/24 02:32:52;;;;;;;6.15;2.63;;;5.10;82.50;;;;;;4985608;28;20151;-67
2022/02/24 02:35:19;;;;;;;5.35;2.05;;;5.20;82.40;;;;;;4984518;28;20118;-68
2022/02/24 02:37:46;;;;;;;10.27;3.40;;;5.20;82.40;;;;;;4967797;28;20100;-66
2022/02/24 02:40:15;;;;;;;5.30;2.00;;;5.20;82.40;;;;;;4987962;28;20187;-65
2022/02/24 02:42:46;;;;;;;5.60;2.17;;;5.20;82.40;;;;;;4976919;28;20046;-67
2022/02/24 02:45:13;;;;;;;6.43;2.22;;;5.20;82.40;;;;;;4985881;28;20136;-68
2022/02/24 02:47:40;;;;;;;7.70;2.25;;;5.20;82.40;;;;;;4987241;28;20073;-66
2022/02/24 02:50:08;;;;;;;5.00;2.42;;;5.20;82.40;;;;;;4984052;28;20128;-67
2022/02/24 02:52:35;;;;;;;8.13;2.20;;;5.20;82.30;;;;;;4986162;28;20059;-67
2022/02/24 02:55:07;;;;;;;6.88;2.08;;;5.20;82.40;;;;;;4984976;28;20061;-67
2022/02/24 02:57:46;;;;;;;7.03;2.83;;;5.20;82.40;;;;;;4971309;28;20049;-67
2022/02/24 03:00:16;;;;;;;5.10;2.58;;;5.20;82.40;;;;;;4979640;28;20046;-68
2022/02/24 03:02:46;;;;;;;6.07;2.33;;;5.20;82.40;;;;;;4986440;28;20605;-65
2022/02/24 03:05:14;;;;;;;7.30;2.28;;;5.20;82.60;;;;;;4984258;28;20499;-67
2022/02/24 03:07:41;;;;;;;4.72;2.17;;;5.20;82.70;;;;;;4984210;28;20062;-66
2022/02/24 03:10:11;;;;;;;7.45;2.88;;;5.20;82.70;;;;;;4980146;28;20046;-65
2022/02/24 03:12:40;;;;;;;5.10;2.57;;;5.20;82.80;;;;;;4985316;28;20046;-66
2022/02/24 03:15:14;;;;;;;5.75;1.98;;;5.20;82.70;;;;;;4983603;28;20046;-65
2022/02/24 03:17:46;;;;;;;7.03;2.53;;;5.20;82.80;;;;;;4983604;28;20054;-67
2022/02/24 03:20:19;;;;;;;5.45;2.00;;;5.20;82.70;;;;;;4983333;28;20052;-66
2022/02/24 03:22:54;;;;;;;7.45;2.45;;;5.20;82.60;;;;;;4983631;28;20046;-66
2022/02/24 03:25:20;;;;;;;;;;;5.20;82.50;;;;;;4983957;28;20046;-67
2022/02/24 03:27:53;;;;;;;8.40;2.95;;;5.20;82.50;;;;;;4984264;28;20012;-65
2022/02/24 03:30:20;;;;;;;4.95;2.42;;;5.20;82.50;;;;;;4982609;28;20058;-67
2022/02/24 03:32:48;;;;;;;4.95;1.85;;;5.20;82.60;;;;;;4979314;28;20057;-68
2022/02/24 03:35:20;;;;;;;5.88;2.45;;;5.20;82.50;;;;;;4986148;28;20064;-67
2022/02/24 03:37:49;;;;;;;9.35;2.25;;;5.20;82.50;;;;;;4979648;28;20046;-65
2022/02/24 03:40:20;;;;;;;7.88;2.10;;;5.20;82.70;;;;;;4982153;28;20045;-67
2022/02/24 03:42:49;;;;;;;4.40;2.08;;;5.20;82.70;;;;;;4985566;28;20505;-66
2022/02/24 03:45:20;;;;;;;4.43;1.80;;;5.20;82.60;;;;;;4983540;28;20050;-65
2022/02/24 03:47:53;;;;;;;5.63;2.08;;;5.20;82.70;;;;;;4983693;28;20045;-66
2022/02/24 03:50:30;;;;;;;6.40;2.35;;;5.30;82.60;;;;;;4983414;28;20049;-66
2022/02/24 03:53:03;;;;;;;6.70;3.07;;;5.30;82.60;;;;;;4983936;28;20787;-66
2022/02/24 03:55:30;;;;;;;5.43;2.10;;;5.30;82.50;;;;;;4985035;28;20511;-66
2022/02/24 03:57:59;;;;;;;6.65;2.47;;;5.30;82.50;;;;;;4982475;28;21420;-66
2022/02/24 04:00:36;;;;;;;4.25;1.90;;;5.30;82.40;;;;;;4983579;28;20052;-67
2022/02/24 04:03:03;;;;;;;7.10;2.25;;;5.30;82.60;;;;;;4981928;28;20058;-66
2022/02/24 04:05:30;;;;;;;5.47;1.73;;;5.30;82.60;;;;;;4984448;28;20530;-68
2022/02/24 04:07:58;;;;;;;7.72;2.55;;;5.30;82.60;;;;;;4984776;28;20058;-67
2022/02/24 04:10:25;;;;;;;8.48;2.28;;;5.30;82.60;;;;;;4982858;28;20045;-67
2022/02/24 04:12:55;;;;;;;4.10;2.03;;;5.30;82.60;;;;;;4983933;28;20052;-66
2022/02/24 04:15:24;;;;;;;8.13;2.65;;;5.30;82.60;;;;;;4964170;28;20046;-68
2022/02/24 04:17:52;;;;;;;9.27;2.75;;;5.30;82.60;;;;;;4983966;28;20051;-67
2022/02/24 04:20:19;;;;;;;5.70;2.63;;;5.30;82.60;;;;;;4983685;28;20057;-66
2022/02/24 04:22:49;;;;;;;6.18;2.58;;;5.30;82.70;;;;;;4984276;28;22043;-67
2022/02/24 04:25:19;;;;;;;6.65;1.95;;;5.30;82.70;;;;;;4981910;28;20096;-67
2022/02/24 04:27:50;;;;;;;6.00;2.25;;;5.40;82.60;;;;;;4984098;28;20045;-66
2022/02/24 04:30:25;;;;;;;4.82;2.35;;;5.30;82.60;;;;;;4981701;28;20039;-67
2022/02/24 04:32:52;;;;;;;6.35;2.80;;;5.30;82.60;;;;;;4981366;28;20550;-67
2022/02/24 04:35:22;;;;;;;4.28;2.15;;;5.30;82.80;;;;;;4983200;28;20129;-66
2022/02/24 04:37:53;;;;;;;4.47;2.35;;;5.30;82.80;;;;;;4968946;28;20073;-67
2022/02/24 04:40:21;;;;;;;6.45;2.20;;;5.30;82.90;;;;;;4979223;28;20556;-68
2022/02/24 04:42:48;;;;;;;5.32;2.33;;;5.40;82.80;;;;;;4978558;28;20181;-67
2022/02/24 04:45:22;;;;;;;4.80;2.47;;;5.30;82.80;;;;;;4981548;28;20418;-67
2022/02/24 04:48:01;;;;;;;5.28;1.90;;;5.30;82.90;;;;;;4984196;28;20625;-67
2022/02/24 04:50:35;;;;;;;3.80;2.15;;;5.30;82.80;;;;;;4983170;28;20124;-68
2022/02/24 04:53:15;;;;;;;5.70;2.05;;;5.30;82.80;;;;;;4982472;28;20054;-66
2022/02/24 04:55:48;;;;;;;6.75;2.65;;;5.30;83.00;;;;;;4983873;28;20042;-67
2022/02/24 04:58:15;;;;;;;5.68;2.05;;;5.30;83.00;;;;;;4982362;28;20052;-67
2022/02/24 05:00:42;;;;;;;5.78;2.47;;;5.30;83.10;;;;;;4980399;28;20614;-68
2022/02/24 05:03:18;;;;;;;6.72;2.33;;;5.40;83.10;;;;;;4967824;28;20041;-67
2022/02/24 05:05:46;;;;;;;6.28;2.22;;;5.40;83.10;;;;;;4980483;28;20042;-66
2022/02/24 05:08:13;;;;;;;6.00;2.15;;;5.40;83.10;;;;;;4980817;28;20092;-66
2022/02/24 05:10:41;;;;;;;5.32;2.05;;;5.40;83.00;;;;;;4981562;28;20057;-67
2022/02/24 05:13:10;;;;;;;5.50;2.60;;;5.40;83.00;;;;;;4978980;28;20046;-67
2022/02/24 05:15:37;;;;;;;5.50;2.33;;;5.40;83.00;;;;;;4982197;28;20056;-67
2022/02/24 05:18:07;;;;;;;6.60;2.05;;;5.40;82.90;;;;;;4982177;28;20050;-67
2022/02/24 05:20:36;;;;;;;5.43;2.03;;;5.40;83.00;;;;;;4963175;28;20637;-67
2022/02/24 05:23:03;;;;;;;5.32;2.20;;;5.40;83.00;;;;;;4982209;28;20101;-67
2022/02/24 05:25:34;;;;;;;5.90;2.58;;;5.40;82.90;;;;;;4984729;28;20041;-69
2022/02/24 05:28:08;;;;;;;6.50;2.35;;;5.40;83.00;;;;;;4981722;28;20054;-67
2022/02/24 05:30:38;;;;;;;5.47;2.08;;;5.40;83.00;;;;;;4984856;28;20060;-68
2022/02/24 05:33:09;;;;;;;5.85;2.85;;;5.40;83.10;;;;;;4960314;28;20051;-67
2022/02/24 05:35:44;;;;;;;3.50;1.75;;;5.40;83.10;;;;;;4984804;28;20053;-66
2022/02/24 05:38:19;;;;;;;6.32;2.53;;;5.40;83.20;;;;;;4987187;28;20042;-67
2022/02/24 05:40:52;;;;;;;6.72;2.40;;;5.40;83.20;;;;;;4986719;28;20248;-67
2022/02/24 05:43:19;;;;;;;5.70;2.22;;;5.50;83.20;;;;;;4985930;28;21028;-67
2022/02/24 05:45:47;;;;;;;4.10;1.75;;;5.50;83.20;;;;;;4986447;28;20046;-67
2022/02/24 05:48:14;;;;;;;4.53;1.73;;;5.50;83.20;;;;;;4987397;28;20164;-67
2022/02/24 05:50:43;;;;;;;6.30;2.63;;;5.50;83.20;;;;;;4986463;28;20033;-67
2022/02/24 05:53:10;;;;;;;5.90;2.05;;;5.40;83.30;;;;;;4985103;28;20053;-70
2022/02/24 05:55:46;;;;;;;6.00;2.35;;;5.50;83.40;;;;;;4986312;28;20483;-67
2022/02/24 05:58:19;;;;;;;5.13;2.42;;;5.50;83.30;;;;;;4986705;28;20487;-66
2022/02/24 06:00:50;;;;;;;9.00;3.08;;;5.50;83.40;;;;;;4985675;28;22341;-66
2022/02/24 06:03:20;;;;;;;5.25;2.13;;;5.50;83.50;;;;;;4965811;28;20046;-67
2022/02/24 06:05:53;;;;;;;7.38;2.42;;;5.50;83.40;;;;;;4984771;28;20057;-67
2022/02/24 06:08:20;;;;;;;4.45;2.10;;;5.50;83.50;;;;;;4990587;28;20069;-67
2022/02/24 06:10:48;;;;;;;6.75;2.08;;;5.50;83.60;;;;;;4974969;28;20053;-68
2022/02/24 06:13:20;;;;;;;3.20;1.77;;;5.50;83.60;;;;;;4984363;28;20046;-68
2022/02/24 06:15:47;;;;;;;4.55;1.70;;;5.50;83.60;;;;;;4986431;28;20061;-66
2022/02/24 06:18:18;;;;;;;10.45;2.85;;;5.50;83.60;;;;;;4986472;28;20567;-66
2022/02/24 06:20:52;;;;;;;7.07;2.70;;;5.50;83.60;;;;;;4983531;28;20711;-67
2022/02/24 06:23:20;;;;;;;5.70;2.10;;;5.60;83.60;;;;;;4987192;28;20046;-67
2022/02/24 06:25:48;;;;;;;7.80;2.03;;;5.60;83.60;;;;;;4984233;28;20068;-67
2022/02/24 06:28:18;;;;;;;6.13;2.25;;;5.60;83.70;;;;;;4985398;28;20220;-68
2022/02/24 06:30:46;;;;;;;7.47;3.28;;;5.50;83.70;;;;;;4986005;28;20049;-67
2022/02/24 06:33:13;;;;;;;8.02;3.72;;;5.50;83.60;;;;;;4983811;28;20069;-67
2022/02/24 06:35:41;;;;;;;4.43;2.42;;;5.60;83.60;;;;;;4987659;28;20614;-68
2022/02/24 06:38:12;;;;;;;7.68;2.45;;;5.60;83.70;;;;;;4986931;28;20069;-68
2022/02/24 06:40:40;;;;;;;5.40;2.63;;;5.60;83.80;;;;;;4983941;28;21644;-69
2022/02/24 06:43:08;;;;;;;5.07;2.33;;;5.50;83.80;;;;;;4988488;28;20065;-66
2022/02/24 06:45:48;;;;;;;6.32;2.63;;;5.60;83.80;;;;;;4987086;28;20717;-69
2022/02/24 06:48:16;;;;;;;4.78;2.22;;;5.60;83.70;;;;;;4982812;28;20041;-68
2022/02/24 06:50:43;;;;;;;5.68;2.35;;;5.60;83.70;;;;;;4980871;28;20054;-67
2022/02/24 06:53:13;;;;;;;8.52;2.67;;;5.60;83.70;;;;;;4983227;28;20050;-67
2022/02/24 06:55:44;;;;;;;6.88;2.45;;;5.70;83.80;;;;;;4983903;28;20047;-67
2022/02/24 06:58:15;;;;;;;4.75;2.03;;;5.60;83.90;;;;;;4984933;28;20073;-67
2022/02/24 07:00:46;;;;;;;5.25;2.17;;;5.70;83.90;;;;;;4987837;28;20058;-69
2022/02/24 07:03:16;;;;;;;;;;;5.70;83.90;;;;;;4985796;28;20050;-67
2022/02/24 07:05:46;;;;;;;5.63;2.42;;;5.70;83.80;;;;;;4988339;28;20470;-67
2022/02/24 07:08:19;;;;;;;5.47;3.28;;;5.70;83.80;;;;;;4972562;28;20117;-67
2022/02/24 07:10:46;;;;;;;6.25;2.15;;;5.70;83.80;;;;;;4984921;28;20052;-68
2022/02/24 07:13:22;;;;;;;6.72;2.00;;;5.70;83.80;;;;;;4983629;28;20052;-67
2022/02/24 07:15:49;;;;;;;4.38;1.65;;;5.70;83.80;;;;;;4984306;28;20062;-67
2022/02/24 07:18:17;;;;;;;3.30;1.85;;;5.70;83.80;;;;;;4982821;28;20038;-68
2022/02/24 07:20:47;;;;;;;6.38;2.92;;;5.70;83.90;;;;;;4984808;28;20042;-67
2022/02/24 07:23:16;;;;;;;7.90;2.42;;;5.70;84.00;;;;;;4984657;28;20038;-68
2022/02/24 07:25:45;;;;;;;6.85;2.15;;;5.70;84.10;;;;;;4983518;28;20177;-68
2022/02/24 07:28:12;;;;;;;8.15;3.55;;;5.70;84.00;;;;;;4984119;28;20045;-67
2022/02/24 07:30:41;;;;;;;4.97;2.60;;;5.70;84.00;;;;;;4985004;28;20145;-67
2022/02/24 07:33:09;;;;;;;5.93;2.50;;;5.70;84.00;;;;;;4982948;28;20508;-67
2022/02/24 07:35:39;;;;;;;8.82;2.45;;;5.80;84.00;;;;;;4985194;28;20056;-68
2022/02/24 07:38:10;;;;;;;7.68;2.45;;;5.80;84.00;;;;;;4984186;28;20069;-67
2022/02/24 07:40:39;;;;;;;8.05;2.80;;;5.80;84.00;;;;;;4976284;28;20058;-66
2022/02/24 07:43:26;;;;;;;7.32;2.20;;;5.80;84.00;;;;;;4983133;28;20050;-67
2022/02/24 07:45:56;;;;;;;5.20;2.67;;;5.80;84.10;;;;;;4983549;28;20573;-67
2022/02/24 07:48:27;;;;;;;6.40;3.42;;;5.90;84.10;;;;;;4983124;28;20049;-67
2022/02/24 07:50:59;;;;;;;8.57;3.40;;;5.90;84.10;;;;;;4984698;28;20048;-66
2022/02/24 07:53:28;;;;;;;5.53;2.35;;;5.90;84.10;;;;;;4983668;28;20046;-67
2022/02/24 07:55:58;;;;;;;6.38;2.53;;;5.90;84.10;;;;;;4985099;28;20408;-67
2022/02/24 07:58:25;;;;;;;5.82;2.40;;;5.90;84.00;;;;;;4984351;28;20092;-67
2022/02/24 08:00:52;;;;;;;6.78;2.42;;;6.00;84.10;;;;;;4984404;28;20054;-68
2022/02/24 08:03:20;;;;;;;5.22;2.22;;;6.00;84.00;;;;;;4982985;28;20496;-67
2022/02/24 08:05:53;;;;;;;6.45;2.50;;;6.00;84.00;;;;;;4983426;28;20400;-67
2022/02/24 08:08:21;;;;;;;6.22;2.80;;;6.00;84.00;;;;;;4983837;28;20118;-68
2022/02/24 08:10:49;;;;;;;7.38;2.50;;;6.10;84.00;;;;;;4980846;28;20157;-69
2022/02/24 08:13:17;;;;;;;8.38;2.53;;;6.10;84.00;;;;;;4979971;28;20887;-67
2022/02/24 08:15:51;;;;;;;6.65;3.13;;;6.10;83.80;;;;;;4982890;28;20057;-69
2022/02/24 08:18:18;;;;;;;8.82;2.72;;;6.10;83.80;;;;;;4980571;28;20044;-67
2022/02/24 08:20:47;;;;;;;10.52;2.90;;;6.20;83.70;;;;;;4963249;28;20691;-68
2022/02/24 08:23:20;;;;;;;6.15;3.13;;;6.10;83.70;;;;;;4966372;28;20084;-70
2022/02/24 08:25:48;;;;;;;7.38;2.55;;;6.10;83.80;;;;;;4983658;28;20046;-68
2022/02/24 08:28:21;;;;;;;6.13;3.03;;;6.10;83.80;;;;;;4986693;28;21979;-67
2022/02/24 08:30:48;;;;;;;7.18;2.95;;;6.20;83.80;;;;;;4982315;28;20071;-68
2022/02/24 08:33:18;;;;;;;7.40;3.20;;;6.20;83.90;;;;;;4982328;28;20054;-67
2022/02/24 08:35:48;;;;;;;10.20;3.80;;;6.20;83.90;;;;;;4983730;28;20053;-67
2022/02/24 08:38:19;;;;;;;9.50;3.63;;;6.20;83.90;;;;;;4981833;28;20046;-67
2022/02/24 08:40:47;;;;;;;6.15;2.85;;;6.20;84.00;;;;;;4969967;28;20559;-68
2022/02/24 08:43:22;;;;;;;4.97;2.38;;;6.20;83.90;;;;;;4979341;28;20054;-66
2022/02/24 08:45:52;;;;;;;8.60;3.20;;;6.20;83.90;;;;;;4984141;28;20171;-69
2022/02/24 08:48:20;;;;;;;;;;;6.30;83.90;;;;;;4981893;28;20050;-67
2022/02/24 08:50:48;;;;;;;7.57;2.58;;;6.30;83.90;;;;;;4983755;28;19926;-67
2022/02/24 08:53:18;;;;;;;7.50;2.50;;;6.40;83.90;;;;;;4983037;28;20133;-66
2022/02/24 08:55:48;;;;;;;6.18;3.03;;;6.40;83.90;;;;;;4984859;28;20495;-67
2022/02/24 08:58:16;;;;;;;7.57;3.00;;;6.40;83.90;;;;;;4982531;28;20236;-67
2022/02/24 09:00:47;;;;;;;7.15;3.25;;;6.40;83.70;;;;;;4981661;28;20046;-67
2022/02/24 09:03:15;;;;;;;6.00;3.00;;;6.50;83.70;;;;;;4980773;28;20051;-68
2022/02/24 09:05:44;;;;;;;5.18;2.42;;;6.50;83.70;;;;;;4982311;28;20038;-67
2022/02/24 09:08:11;;;;;;;6.97;2.63;;;6.50;83.70;;;;;;4982774;28;20944;-68
2022/02/24 09:10:42;;;;;;;6.00;2.70;;;6.50;83.70;;;;;;4982311;28;20034;-68
2022/02/24 09:13:10;;;;;;;7.30;2.95;;;6.60;83.70;;;;;;4975153;28;20053;-68
2022/02/24 09:15:42;;;;;;;7.90;3.15;;;6.60;83.80;;;;;;4989460;28;20045;-68
2022/02/24 09:18:12;;;;;;;5.03;2.78;;;6.60;83.80;;;;;;4988342;28;20073;-68
2022/02/24 09:20:42;;;;;;;4.68;2.05;;;6.60;83.80;;;;;;4986305;28;20041;-67
2022/02/24 09:23:10;;;;;;;6.00;3.00;;;6.60;83.80;;;;;;4987278;28;20046;-69
2022/02/24 09:25:40;;;;;;;7.38;2.53;;;6.70;84.10;;;;;;4987199;28;20044;-67
2022/02/24 09:28:08;;;;;;;7.83;2.87;;;6.70;84.20;;;;;;4988423;28;20042;-68
2022/02/24 09:30:39;;;;;;;7.00;3.28;;;6.70;84.20;;;;;;4969716;28;20057;-69
2022/02/24 09:33:06;;;;;;;5.45;2.80;;;6.70;84.20;;;;;;4986627;28;20046;-68
2022/02/24 09:35:34;;;;;;;9.70;3.40;;;6.80;84.20;;;;;;4983185;28;20058;-68
2022/02/24 09:38:06;;;;;;;8.38;3.33;;;6.80;84.20;;;;;;4985418;28;20045;-67
2022/02/24 09:40:37;;;;;;;7.35;3.45;;;6.90;84.30;;;;;;4986102;28;20050;-68
2022/02/24 09:43:04;;;;;;;11.00;3.60;;;6.90;84.10;;;;;;4985200;28;20136;-68
2022/02/24 09:45:34;;;;;;;8.80;4.10;;;7.00;84.20;;;;;;4988667;28;21674;-67
2022/02/24 09:48:06;;;;;;;10.15;3.45;;;7.00;84.00;;;;;;4988181;28;20053;-68
2022/02/24 09:50:35;;;;;;;10.07;3.88;;;7.10;83.90;;;;;;4985358;28;20088;-68
2022/02/24 09:53:03;;;;;;;8.07;3.00;;;7.10;83.70;;;;;;4985591;28;20044;-68
2022/02/24 09:55:31;;;;;;;6.90;3.35;;;7.20;83.60;;;;;;4986534;28;20050;-69
2022/02/24 09:57:59;;;;;;;7.50;3.40;;;7.30;83.40;;;;;;4985519;28;20047;-68
2022/02/24 10:00:27;;;;;;;7.88;2.97;;;7.30;83.30;;;;;;4985077;28;20137;-68
2022/02/24 10:02:55;;;;;;;7.40;2.85;;;7.40;83.30;;;;;;4986465;28;20735;-68
2022/02/24 10:05:23;;;;;;;9.32;3.38;;;7.40;83.20;;;;;;4985866;28;20053;-68
2022/02/24 10:07:52;;;;;;;10.52;3.72;;;7.50;83.10;;;;;;4989916;28;20045;-69
2022/02/24 10:10:30;;;;;;;5.22;2.17;;;7.50;83.00;;;;;;4984725;28;20119;-68
2022/02/24 10:13:11;;;;;;;4.82;2.05;;;7.50;83.00;;;;;;4985934;28;20048;-67
2022/02/24 10:15:43;;;;;;;4.65;1.75;;;7.50;82.90;;;;;;4987735;28;20127;-68
2022/02/24 10:18:14;;;;;;;7.28;2.20;;;7.50;82.90;;;;;;4986188;28;20062;-68
2022/02/24 10:20:44;;;;;;;6.72;1.75;;;7.50;82.90;;;;;;4988420;28;20169;-68
2022/02/24 10:23:17;;;;;;;5.07;1.42;;;7.60;82.90;;;;;;4977023;28;20046;-67
2022/02/24 10:25:51;;;;;;;4.10;1.80;;;7.60;82.90;;;;;;4988634;28;20219;-69
2022/02/24 10:28:34;;;;;;;4.63;1.63;;;7.60;82.90;;;;;;4988079;28;20069;-68
2022/02/24 10:31:06;;;;;;;4.88;1.58;;;7.60;83.00;;;;;;4986567;28;20046;-68
2022/02/24 10:33:35;;;;;;;6.40;2.10;;;7.60;83.00;;;;;;4987792;28;20051;-68
2022/02/24 10:36:20;;;;;;;8.18;2.53;;;7.70;82.80;;;;;;4986880;28;20062;-69
2022/02/24 10:39:05;;;;;;;3.97;1.48;;;7.70;82.90;;;;;;4981463;28;20057;-69
2022/02/24 10:41:34;;;;;;;3.80;1.45;;;7.70;82.80;;;;;;4986955;28;20093;-69
2022/02/24 10:44:19;;;;;;;3.25;1.30;;;7.70;82.80;;;;;;4987115;28;20072;-68
2022/02/24 10:46:50;;;;;;;3.72;1.45;;;7.70;82.90;;;;;;4967473;28;20129;-69
2022/02/24 10:49:35;;;;;;;4.30;1.10;;;7.70;82.80;;;;;;4986795;28;20061;-68
2022/02/24 10:52:13;;;;;;;3.50;1.33;;;7.70;82.70;;;;;;4973921;28;20804;-68
2022/02/24 10:54:44;;;;;;;5.05;1.70;;;7.80;82.60;;;;;;4984990;28;20050;-69
2022/02/24 10:57:24;;;;;;;5.25;1.23;;;7.80;82.60;;;;;;4987191;28;20125;-68
2022/02/24 10:59:53;;;;;;;4.25;1.05;;;7.80;82.60;;;;;;4987304;28;20042;-67
2022/02/24 11:02:24;;;;;;;2.47;0.98;;;7.90;82.50;;;;;;4988398;28;20038;-69
2022/02/24 11:04:53;;;;;;;4.10;1.10;;;7.90;82.70;;;;;;4977937;28;20112;-68
2022/02/24 11:07:23;;;;;;;3.47;1.20;;;7.90;82.60;;;;;;4989683;28;20049;-68
2022/02/24 11:09:57;;;;;;;3.95;1.35;;;8.00;82.60;;;;;;4983095;28;20170;-69
2022/02/24 11:12:29;;;;;;;3.40;1.38;;;8.00;82.50;;;;;;4984947;28;20046;-69
2022/02/24 11:14:59;;;;;;;4.20;1.58;;;8.00;82.50;;;;;;4985814;28;20090;-69
2022/02/24 11:17:27;;;;;;;2.80;1.20;;;8.10;82.50;;;;;;4964825;28;20042;-69
2022/02/24 11:19:58;;;;;;;1.95;0.90;;;8.10;82.60;;;;;;4985447;28;20042;-69
2022/02/24 11:22:25;;;;;;;3.95;1.50;;;8.20;82.50;;;;;;4986683;28;20064;-69
2022/02/24 11:24:55;;;;;;;3.53;1.15;;;8.20;82.40;;;;;;4982302;28;20042;-69
2022/02/24 11:27:35;;;;;;;3.53;1.42;;;8.20;82.50;;;;;;4982761;28;20065;-69
2022/02/24 11:30:06;;;;;;;5.93;1.90;;;8.30;82.40;;;;;;4986616;28;20049;-69
2022/02/24 11:32:36;;;;;;;;;;;8.30;82.30;;;;;;4971413;28;20057;-69
2022/02/24 11:35:10;;;;;;;4.65;0.73;;;8.40;82.40;;;;;;4988711;28;20019;-70
2022/02/24 11:37:43;;;;;;;3.20;0.95;;;8.40;82.30;;;;;;4988044;28;20180;-69
2022/02/24 11:40:19;;;;;;;4.72;1.17;;;8.50;82.20;;;;;;4988485;28;20049;-71
2022/02/24 11:43:01;;;;;;;3.13;0.80;;;8.60;82.20;;;;;;4985352;28;20129;-70
2022/02/24 11:45:48;;;;;;;3.08;1.20;;;8.70;81.90;;;;;;4985460;28;20061;-70
2022/02/24 11:48:18;;;;;;;6.25;1.98;;;8.70;81.90;;;;;;4990181;28;20122;-68
2022/02/24 11:50:54;;;;;;;4.88;1.73;;;8.80;81.80;;;;;;4991379;28;20042;-70
2022/02/24 11:53:37;;;;;;;2.70;0.90;;;8.90;81.70;;;;;;4991860;28;20679;-67
2022/02/24 11:56:16;;;;;;;4.15;1.05;;;9.00;81.50;;;;;;4992327;28;20046;-68
2022/02/24 11:58:57;;;;;;;1.67;0.85;;;9.00;81.40;;;;;;4992800;28;20038;-69
2022/02/24 12:01:49;;;;;;;3.53;1.02;;;9.10;81.60;;;;;;4990155;28;20958;-70
2022/02/24 12:04:20;;;;;;;4.78;1.35;;;9.20;81.60;;;;;;4989144;28;20038;-70
2022/02/24 12:06:53;;;;;;;2.47;1.00;;;9.30;81.20;;;;;;4988778;28;20069;-69
2022/02/24 12:09:30;;;;;;;3.85;0.88;;;9.40;80.70;;;;;;4991435;28;20503;-69
2022/02/24 12:12:04;;;;;;;2.75;1.10;;;9.40;80.40;;;;;;4991074;28;20038;-70
2022/02/24 12:14:47;;;;;;;4.18;1.77;;;9.40;80.30;;;;;;4990364;28;20060;-69
2022/02/24 12:17:16;;;;;;;2.25;0.73;;;9.50;80.40;;;;;;4990881;28;20049;-70
2022/02/24 12:19:53;;;;;;;2.97;1.35;;;9.50;80.20;;;;;;4990326;28;20164;-70
2022/02/24 12:22:36;;;;;;;1.73;0.70;;;9.50;80.00;;;;;;4993023;28;20057;-69
2022/02/24 12:25:11;;;;;;;2.67;0.73;;;9.60;79.70;;;;;;4990344;28;22051;-70
2022/02/24 12:27:42;;;;;;;2.38;0.70;;;9.70;79.40;;;;;;4990716;28;20105;-70
2022/02/24 12:30:27;;;;;;;4.72;0.80;;;9.70;79.50;;;;;;4988218;28;20065;-70
2022/02/24 12:32:58;;;;;;;3.85;0.88;;;9.70;79.30;;;;;;4989306;28;20116;-70
2022/02/24 12:35:32;;;;;;;2.45;0.98;;;9.70;79.10;;;;;;4989462;28;20136;-69
2022/02/24 12:38:01;;;;;;;3.85;1.17;;;9.70;79.20;;;;;;4991680;28;20038;-70
2022/02/24 12:40:35;;;;;;;3.85;1.00;;;9.70;79.20;;;;;;4989639;28;20050;-70
2022/02/24 12:43:06;;;;;;;2.45;0.90;;;9.60;79.50;;;;;;4990285;28;20073;-70
2022/02/24 12:45:38;;;;;;;3.53;1.00;;;9.60;79.80;;;;;;4989877;28;20053;-68
2022/02/24 12:48:14;;;;;;;6.50;1.35;;;9.70;79.70;;;;;;4987500;28;20073;-69
2022/02/24 12:50:43;;;;;;;4.25;0.60;;;9.70;79.50;;;;;;4989644;28;20056;-70
2022/02/24 12:53:21;;;;;;;2.45;0.82;;;9.70;79.40;;;;;;4985938;28;20117;-68
2022/02/24 12:55:54;;;;;;;5.00;0.93;;;9.70;79.30;;;;;;4989433;28;20054;-69
2022/02/24 12:58:24;;;;;;;3.58;0.57;;;9.70;79.50;;;;;;4988998;28;20058;-69
2022/02/24 13:00:54;;;;;;;1.42;0.73;;;9.70;79.40;;;;;;4985768;28;20046;-70
2022/02/24 13:03:25;;;;;;;3.28;0.85;;;9.70;79.20;;;;;;4973961;28;20050;-69
2022/02/24 13:05:55;;;;;;;1.30;0.70;;;9.80;78.90;;;;;;4986539;28;20056;-69
2022/02/24 13:11:10;;;;;;;2.47;0.60;;;9.90;77.70;;;;;;4982023;28;20415;-69
2022/02/24 13:13:41;;;;;;;2.17;0.80;;;10.00;77.40;;;;;;4980723;28;20046;-70
2022/02/24 13:16:13;;;;;;;3.20;0.90;;;10.00;77.30;;;;;;4984193;28;20054;-69
2022/02/24 13:18:42;;;;;;;2.22;0.90;;;10.00;77.20;;;;;;4984186;28;20045;-68